createdAt,value
2023-02-03T00:00:40.638Z,98.07
2023-02-03T00:03:07.987Z,98.37
2023-02-03T00:05:35.848Z,98.41
2023-02-03T00:08:04.787Z,98.24
2023-02-03T00:10:33.564Z,98.42
2023-02-03T00:13:01.360Z,98.40
2023-02-03T00:15:28.418Z,98.34
2023-02-03T00:17:58.882Z,98.21
2023-02-03T00:20:28.025Z,98.32
2023-02-03T00:23:05.351Z,98.27
2023-02-03T00:25:35.253Z,98.37
2023-02-03T00:28:02.516Z,98.43
2023-02-03T00:30:29.699Z,98.63
2023-02-03T00:33:01.160Z,98.76
2023-02-03T00:35:28.298Z,98.42
2023-02-03T00:37:55.816Z,98.73
2023-02-03T00:40:28.127Z,98.78
2023-02-03T00:42:55.526Z,98.68
2023-02-03T00:45:23.638Z,98.78
2023-02-03T00:47:51.112Z,98.83
2023-02-03T00:50:18.402Z,98.86
2023-02-03T00:52:45.532Z,98.73
2023-02-03T00:55:14.473Z,98.69
2023-02-03T00:57:43.989Z,98.34
2023-02-03T01:00:11.944Z,98.34
2023-02-03T01:02:38.985Z,98.52
2023-02-03T01:05:09.217Z,98.22
2023-02-03T01:07:42.654Z,98.32
2023-02-03T01:10:10.925Z,98.25
2023-02-03T01:12:39.307Z,98.22
2023-02-03T01:15:10.145Z,98.48
2023-02-03T01:17:38.684Z,98.61
2023-02-03T01:20:05.990Z,98.76
2023-02-03T01:22:33.236Z,98.56
2023-02-03T01:25:00.543Z,98.92
2023-02-03T01:27:27.595Z,98.92
2023-02-03T01:29:59.522Z,98.86
2023-02-03T01:32:27.719Z,98.90
2023-02-03T01:35:12.818Z,98.91
2023-02-03T01:37:45.879Z,98.76
2023-02-03T01:40:15.361Z,98.62
2023-02-03T01:42:45.148Z,98.59
2023-02-03T01:45:15.072Z,98.68
2023-02-03T01:47:48.875Z,98.49
2023-02-03T01:50:29.667Z,98.71
2023-02-03T01:53:03.313Z,98.40
2023-02-03T01:55:37.906Z,98.21
2023-02-03T01:58:10.113Z,98.05
2023-02-03T02:00:40.638Z,98.07
2023-02-03T02:03:10.193Z,98.14
2023-02-03T02:05:43.250Z,97.88
2023-02-03T02:08:13.215Z,98.18
2023-02-03T02:10:42.701Z,98.24
2023-02-03T02:55:47.224Z,99.12
2023-02-03T02:58:16.248Z,98.99
2023-02-03T03:01:06.446Z,98.83
2023-02-03T03:03:40.769Z,99.11
2023-02-03T03:06:13.631Z,98.98
2023-02-03T03:08:47.889Z,98.95
2023-02-03T03:11:17.924Z,99.04
2023-02-03T03:13:51.329Z,98.87
2023-02-03T03:16:24.977Z,98.93
2023-02-03T03:19:07.450Z,99.31
2023-02-03T03:21:47.546Z,99.25
2023-02-03T03:24:19.231Z,99.50
2023-02-03T03:26:53.582Z,99.04
2023-02-03T03:29:46.598Z,99.19
2023-02-03T03:32:15.245Z,98.90
2023-02-03T03:34:43.670Z,98.90
2023-02-03T03:37:39.237Z,99.17
2023-02-03T03:40:11.251Z,99.36
2023-02-03T03:43:18.756Z,99.07
2023-02-03T03:46:10.047Z,98.97
2023-02-03T03:48:50.231Z,99.10
2023-02-03T03:51:26.004Z,99.04
2023-02-03T03:53:54.374Z,98.96
2023-02-03T03:56:26.341Z,98.89
2023-02-03T03:58:56.018Z,98.68
2023-02-03T04:01:25.098Z,99.09
2023-02-03T04:03:58.119Z,98.97
2023-02-03T04:06:26.688Z,99.12
2023-02-03T04:08:55.167Z,98.96
2023-02-03T04:11:43.600Z,98.68
2023-02-03T04:14:13.986Z,98.84
2023-02-03T04:16:42.548Z,98.86
2023-02-03T04:19:11.655Z,98.58
2023-02-03T04:21:43.737Z,98.94
2023-02-03T04:24:13.749Z,98.81
2023-02-03T04:26:44.805Z,98.80
2023-02-03T04:29:14.794Z,98.82
2023-02-03T04:31:45.728Z,98.52
2023-02-03T04:34:16.171Z,98.47
2023-02-03T04:36:57.575Z,98.36
2023-02-03T04:39:28.233Z,98.52
2023-02-03T04:45:56.940Z,98.73
2023-02-03T04:48:28.963Z,98.75
2023-02-03T04:51:03.690Z,98.58
2023-02-03T04:53:33.774Z,98.40
2023-02-03T04:56:04.500Z,98.56
2023-02-03T04:58:33.716Z,98.64
2023-02-03T05:01:08.802Z,98.61
2023-02-03T05:03:39.297Z,98.52
2023-02-03T05:06:09.012Z,98.61
2023-02-03T05:08:37.877Z,98.33
2023-02-03T05:11:06.788Z,98.77
2023-02-03T05:13:39.249Z,98.62
2023-02-03T05:16:27.709Z,98.56
2023-02-03T05:18:59.424Z,98.77
2023-02-03T05:21:29.166Z,98.93
2023-02-03T05:24:00.988Z,98.70
2023-02-03T05:26:30.938Z,98.93
2023-02-03T05:28:59.240Z,98.69
2023-02-03T05:31:27.581Z,98.76
2023-02-03T05:33:56.780Z,99.09
2023-02-03T05:36:25.209Z,98.68
2023-02-03T05:38:54.048Z,98.91
2023-02-03T05:41:42.505Z,99.03
2023-02-03T05:44:11.490Z,99.03
2023-02-03T05:46:39.915Z,99.26
2023-02-03T05:49:10.812Z,99.57
2023-02-03T05:51:40.893Z,99.40
2023-02-03T05:57:19.566Z,99.55
2023-02-03T05:59:48.259Z,99.51
2023-02-03T06:02:18.811Z,99.25
2023-02-03T06:04:48.486Z,99.21
2023-02-03T06:07:17.001Z,99.05
2023-02-03T06:09:46.585Z,99.33
2023-02-03T06:12:16.738Z,99.31
2023-02-03T06:14:46.804Z,99.44
2023-02-03T06:17:15.792Z,99.46
2023-02-03T06:19:47.873Z,99.13
2023-02-03T06:22:16.902Z,99.30
2023-02-03T06:24:46.416Z,99.28
2023-02-03T06:27:15.363Z,99.32
2023-02-03T06:29:44.974Z,99.17
2023-02-03T06:32:54.739Z,98.93
2023-02-03T06:35:23.095Z,98.87
2023-02-03T06:37:52.824Z,99.12
2023-02-03T06:40:21.363Z,98.97
2023-02-03T06:46:34.501Z,98.58
2023-02-03T06:49:35.390Z,98.62
2023-02-03T06:52:59.929Z,98.92
2023-02-03T06:55:41.663Z,98.93
2023-02-03T07:02:10.299Z,98.29
2023-02-03T07:05:04.281Z,98.04
2023-02-03T07:12:25.648Z,97.19
2023-02-03T07:15:52.241Z,96.66
2023-02-03T07:18:47.446Z,96.23
2023-02-03T07:21:16.872Z,96.06
2023-02-03T07:23:50.578Z,95.65
2023-02-03T07:26:19.748Z,95.21
2023-02-03T07:28:49.155Z,95.02
2023-02-03T07:31:18.474Z,94.48
2023-02-03T07:33:51.016Z,94.31
2023-02-03T07:36:19.733Z,93.77
2023-02-03T07:38:58.471Z,93.27
2023-02-03T07:41:29.450Z,93.22
2023-02-03T07:43:57.871Z,93.05
2023-02-03T07:46:26.491Z,92.85
2023-02-03T07:49:03.979Z,92.88
2023-02-03T07:55:51.791Z,91.50
2023-02-03T07:58:23.970Z,90.96
2023-02-03T08:00:56.466Z,90.32
2023-02-03T08:03:26.142Z,90.09
2023-02-03T08:05:58.193Z,89.67
2023-02-03T08:08:34.371Z,90.34
2023-02-03T08:11:03.739Z,90.40
2023-02-03T08:13:34.811Z,90.26
2023-02-03T08:16:06.508Z,90.24
2023-02-03T08:18:35.612Z,90.09
2023-02-03T08:21:05.724Z,89.72
2023-02-03T08:23:36.804Z,89.47
2023-02-03T08:26:07.027Z,89.39
2023-02-03T08:28:35.759Z,89.29
2023-02-03T08:31:14.023Z,88.59
2023-02-03T08:33:43.785Z,88.34
2023-02-03T08:36:14.838Z,87.87
2023-02-03T08:38:44.102Z,87.37
2023-02-03T08:41:19.771Z,87.37
2023-02-03T08:43:51.396Z,87.66
2023-02-03T08:46:20.213Z,87.80
2023-02-03T08:48:53.079Z,88.17
2023-02-03T08:51:22.782Z,88.64
2023-02-03T08:53:54.607Z,88.73
2023-02-03T08:56:27.274Z,88.82
2023-02-03T08:59:01.229Z,88.64
2023-02-03T09:01:35.559Z,88.67
2023-02-03T09:04:08.190Z,88.77
2023-02-03T09:06:37.978Z,88.71
2023-02-03T09:09:12.267Z,88.63
2023-02-03T09:11:45.754Z,88.75
2023-02-03T09:14:16.284Z,89.14
2023-02-03T09:16:45.966Z,89.10
2023-02-03T09:19:18.968Z,89.16
2023-02-03T09:21:50.676Z,89.58
2023-02-03T09:24:20.500Z,89.71
2023-02-03T09:26:49.795Z,89.70
2023-02-03T09:29:20.165Z,89.80
2023-02-03T09:31:53.943Z,89.87
2023-02-03T09:34:24.774Z,90.20
2023-02-03T09:36:58.133Z,90.08
2023-02-03T09:39:41.193Z,90.07
2023-02-03T12:14:49.407Z,75.68
2023-02-03T12:17:49.708Z,75.53
2023-02-03T12:20:28.538Z,75.53
2023-02-03T12:22:59.516Z,74.95
2023-02-03T12:26:03.048Z,74.91
2023-02-03T12:29:03.650Z,75.58
2023-02-03T12:32:22.343Z,75.90
2023-02-03T12:34:50.587Z,76.48
2023-02-03T12:37:26.843Z,76.43
2023-02-03T12:40:00.018Z,77.16
2023-02-03T12:42:29.440Z,77.65
2023-02-03T12:45:11.581Z,77.86
2023-02-03T12:47:50.894Z,77.75
2023-02-03T12:50:40.834Z,77.38
2023-02-03T12:53:12.567Z,77.72
2023-02-03T12:55:55.401Z,77.90
2023-02-03T12:58:33.620Z,77.99
2023-02-03T13:01:26.512Z,78.40
2023-02-03T13:03:58.575Z,78.80
2023-02-03T13:06:43.005Z,79.30
2023-02-03T13:09:32.688Z,79.34
2023-02-03T13:12:20.217Z,79.56
2023-02-03T13:15:21.268Z,79.71
2023-02-03T13:18:29.516Z,80.04
2023-02-03T13:20:56.930Z,80.16
2023-02-03T13:23:26.459Z,80.86
2023-02-03T13:26:12.346Z,80.94
2023-02-03T13:29:03.107Z,81.29
2023-02-03T13:31:40.725Z,81.64
2023-02-03T13:34:37.461Z,81.71
2023-02-03T13:37:25.972Z,81.88
2023-02-03T13:40:17.912Z,81.63
2023-02-03T13:42:58.741Z,81.69
2023-02-03T13:45:38.679Z,81.97
2023-02-03T13:48:16.065Z,81.22
2023-02-03T13:50:47.449Z,80.88
2023-02-03T13:53:18.592Z,80.55
2023-02-03T13:55:56.921Z,80.85
2023-02-03T13:58:34.903Z,80.93
2023-02-03T14:01:28.881Z,80.98
2023-02-03T14:04:00.344Z,80.86
2023-02-03T14:06:38.968Z,80.55
2023-02-03T14:09:33.855Z,79.93
2023-02-03T14:12:30.412Z,80.63
2023-02-03T14:15:12.780Z,80.56
2023-02-03T14:17:45.935Z,80.65
2023-02-03T14:20:28.339Z,80.44
2023-02-03T14:23:01.339Z,80.40
2023-02-03T14:25:32.383Z,80.52
2023-02-03T14:28:02.652Z,80.44
2023-02-03T14:30:55.067Z,80.64
2023-02-03T14:33:47.727Z,80.59
2023-02-03T14:36:36.738Z,81.02
2023-02-03T14:39:37.753Z,80.61
2023-02-03T14:42:18.311Z,80.66
2023-02-03T14:45:43.121Z,80.82
2023-02-03T14:48:31.405Z,80.94
2023-02-03T14:51:10.335Z,80.93
2023-02-03T14:54:02.317Z,80.89
2023-02-03T14:57:30.814Z,81.11
2023-02-03T15:00:36.365Z,80.81
2023-02-03T15:03:09.605Z,80.85
2023-02-03T15:06:03.040Z,80.45
2023-02-03T15:08:46.036Z,79.85
2023-02-03T15:11:31.211Z,79.64
2023-02-03T15:14:26.320Z,79.60
2023-02-03T15:17:17.311Z,79.46
2023-02-03T15:20:04.250Z,79.50
2023-02-03T15:22:42.837Z,79.22
2023-02-03T15:25:19.886Z,78.97
2023-02-03T15:27:57.937Z,78.44
2023-02-03T15:31:12.492Z,78.25
2023-02-03T15:33:43.753Z,78.28
2023-02-03T15:36:26.554Z,78.21
2023-02-03T15:39:15.899Z,78.49
2023-02-03T15:41:52.516Z,78.53
2023-02-03T15:44:40.726Z,78.56
2023-02-03T15:47:32.283Z,78.55
2023-02-03T15:50:26.244Z,78.71
2023-02-03T15:52:54.125Z,79.07
2023-02-03T15:55:26.675Z,79.45
2023-02-03T15:57:54.966Z,79.72
2023-02-03T16:00:52.047Z,79.75
2023-02-03T16:03:34.757Z,80.46
2023-02-03T16:06:38.814Z,80.46
2023-02-03T16:09:32.813Z,80.92
2023-02-03T16:12:23.366Z,80.90
2023-02-03T16:17:44.738Z,81.51
2023-02-03T16:20:33.584Z,81.54
2023-02-03T16:23:22.189Z,82.02
2023-02-03T16:26:28.924Z,82.71
2023-02-03T16:29:49.576Z,83.18
2023-02-03T16:32:38.047Z,83.37
2023-02-03T16:35:35.473Z,83.34
2023-02-03T16:38:26.237Z,83.39
2023-02-03T16:41:15.537Z,83.69
2023-02-03T16:44:34.264Z,83.96
2023-02-03T16:47:40.725Z,84.31
2023-02-03T16:50:38.662Z,84.40
2023-02-03T16:53:23.051Z,84.55
2023-02-03T16:55:55.833Z,84.59
2023-02-03T16:58:25.399Z,84.50
2023-02-03T17:01:00.076Z,84.51
2023-02-03T17:03:32.697Z,84.49
2023-02-03T17:06:14.983Z,84.59
2023-02-03T17:11:59.554Z,84.88
2023-02-03T17:14:59.071Z,84.93
2023-02-03T17:18:01.446Z,85.03
2023-02-03T17:24:24.236Z,85.13
2023-02-03T17:29:56.364Z,84.91
2023-02-03T17:35:34.326Z,84.31
2023-02-03T17:38:01.918Z,83.92
2023-02-03T17:55:01.471Z,83.49
2023-02-03T17:57:35.512Z,83.46
